createdAt,value
2019-02-26T00:00:32.679Z,95370.08
2019-02-26T00:03:02.960Z,95364.84
2019-02-26T00:05:33.060Z,95360.22
2019-02-26T00:08:02.638Z,95362.70
2019-02-26T00:10:33.992Z,95356.59
2019-02-26T00:13:02.061Z,95353.72
2019-02-26T00:15:33.291Z,95349.34
2019-02-26T00:18:01.176Z,95343.78
2019-02-26T00:20:31.904Z,95343.75
2019-02-26T00:23:02.106Z,95353.83
2019-02-26T00:25:31.544Z,95340.86
2019-02-26T00:28:00.215Z,95339.00
2019-02-26T00:30:28.890Z,95344.58
2019-02-26T00:32:59.631Z,95335.26
2019-02-26T00:35:28.058Z,95339.64
2019-02-26T00:37:56.703Z,95337.02
2019-02-26T00:40:25.369Z,95334.13
2019-02-26T00:42:56.482Z,95327.48
2019-02-26T00:45:26.904Z,95325.10
2019-02-26T00:47:54.833Z,95316.92
2019-02-26T00:50:23.513Z,95310.03
2019-02-26T00:52:54.473Z,95311.95
2019-02-26T00:55:25.203Z,95314.14
2019-02-26T00:57:56.846Z,95309.55
2019-02-26T01:00:24.658Z,95305.41
2019-02-26T01:02:53.894Z,95302.73
2019-02-26T01:05:22.655Z,95299.50
2019-02-26T01:07:52.583Z,95299.16
2019-02-26T01:10:23.664Z,95282.23
2019-02-26T01:12:52.240Z,95283.90
2019-02-26T01:15:21.810Z,95271.88
2019-02-26T01:17:50.482Z,95276.31
2019-02-26T01:20:22.663Z,95226.51
2019-02-26T01:22:50.176Z,95245.55
2019-02-26T01:25:22.328Z,95238.07
2019-02-26T01:27:51.063Z,95235.59
2019-02-26T01:30:23.559Z,95231.98
2019-02-26T01:32:50.044Z,95237.70
2019-02-26T01:35:18.708Z,95233.23
2019-02-26T01:37:49.212Z,95247.20
2019-02-26T01:40:20.937Z,95245.22
2019-02-26T01:42:52.220Z,95246.98
2019-02-26T01:45:19.636Z,95229.41
2019-02-26T01:47:51.023Z,95234.38
2019-02-26T01:50:19.388Z,95236.11
2019-02-26T01:52:49.976Z,95240.68
2019-02-26T01:55:20.584Z,95237.63
2019-02-26T01:57:48.839Z,95235.85
2019-02-26T02:00:18.966Z,95236.33
2019-02-26T02:02:47.710Z,95225.39
2019-02-26T02:05:16.485Z,95234.09
2019-02-26T02:07:47.190Z,95213.19
2019-02-26T02:10:16.230Z,95212.30
2019-02-26T02:12:44.926Z,95209.58
2019-02-26T02:15:20.396Z,95187.64
2019-02-26T02:17:47.570Z,95191.32
2019-02-26T02:20:20.831Z,95188.76
2019-02-26T02:22:47.379Z,95187.42
2019-02-26T02:25:16.059Z,95193.67
2019-02-26T02:27:47.696Z,95185.95
2019-02-26T02:30:22.361Z,95177.69
2019-02-26T02:32:50.899Z,95179.55
2019-02-26T02:35:19.143Z,95154.52
2019-02-26T02:37:47.815Z,95177.55
2019-02-26T02:40:16.481Z,95174.10
2019-02-26T02:42:48.400Z,95162.89
2019-02-26T02:45:19.635Z,95171.41
2019-02-26T02:47:46.143Z,95169.88
2019-02-26T02:50:18.176Z,95172.21
2019-02-26T02:52:45.741Z,95165.64
2019-02-26T02:55:18.540Z,95165.08
2019-02-26T02:57:48.668Z,95173.14
2019-02-26T03:00:17.190Z,95167.22
2019-02-26T03:02:49.375Z,95168.77
2019-02-26T03:05:16.316Z,95176.75
2019-02-26T03:07:48.310Z,95173.76
2019-02-26T03:10:15.957Z,95171.59
2019-02-26T03:12:48.574Z,95168.73
2019-02-26T03:15:16.119Z,95171.86
2019-02-26T03:17:44.791Z,95165.19
2019-02-26T03:20:14.664Z,95162.44
2019-02-26T03:22:48.362Z,95157.93
2019-02-26T03:25:17.751Z,95157.16
2019-02-26T03:27:46.517Z,95156.62
2019-02-26T03:30:32.232Z,95166.58
2019-02-26T03:33:00.370Z,95158.48
2019-02-26T03:35:25.356Z,95161.67
2019-02-26T03:37:55.540Z,95154.30
2019-02-26T03:40:27.104Z,95159.72
2019-02-26T03:42:54.899Z,95164.69
2019-02-26T03:45:25.082Z,95159.75
2019-02-26T03:47:55.364Z,95158.81
2019-02-26T03:50:27.091Z,95170.45
2019-02-26T03:52:55.042Z,95165.27
2019-02-26T03:55:23.716Z,95164.77
2019-02-26T03:57:54.318Z,95167.01
2019-02-26T04:00:22.809Z,95149.42
2019-02-26T04:02:52.211Z,95172.19
2019-02-26T04:05:20.832Z,95163.19
2019-02-26T04:07:52.446Z,95160.52
2019-02-26T04:10:20.273Z,95155.00
2019-02-26T04:12:52.150Z,95151.02
2019-02-26T04:15:24.352Z,95149.09
2019-02-26T04:17:52.481Z,95144.64
2019-02-26T04:20:21.137Z,95137.54
2019-02-26T04:22:52.927Z,95135.89
2019-02-26T04:25:42.375Z,95127.27
2019-02-26T04:28:32.909Z,95126.55
2019-02-26T04:31:03.165Z,95118.16
2019-02-26T04:34:01.823Z,95121.64
2019-02-26T04:36:34.380Z,95123.37
2019-02-26T04:39:31.179Z,95119.50
2019-02-26T04:42:17.747Z,95110.13
2019-02-26T04:45:09.499Z,95116.52
2019-02-26T04:47:46.689Z,95106.61
2019-02-26T04:50:14.707Z,95109.94
2019-02-26T04:52:43.697Z,95099.77
2019-02-26T04:55:12.327Z,95100.81
2019-02-26T04:57:44.441Z,95079.98
2019-02-26T05:00:11.484Z,95079.23
2019-02-26T05:02:40.371Z,95084.58
2019-02-26T05:05:09.349Z,95078.34
2019-02-26T05:07:40.781Z,95080.61
2019-02-26T05:10:09.431Z,95067.41
2019-02-26T05:12:40.196Z,95069.05
2019-02-26T05:15:11.438Z,95066.82
2019-02-26T05:17:39.397Z,95063.90
2019-02-26T05:20:10.627Z,95050.33
2019-02-26T05:22:38.592Z,95057.12
2019-02-26T05:25:13.754Z,95062.38
2019-02-26T05:27:41.865Z,95057.93
2019-02-26T05:30:13.044Z,95060.78
2019-02-26T05:32:40.305Z,95064.56
2019-02-26T05:35:08.984Z,95069.55
2019-02-26T05:37:40.858Z,95074.48
2019-02-26T05:40:10.414Z,95085.69
2019-02-26T05:42:38.962Z,95068.44
2019-02-26T05:45:09.358Z,95069.02
2019-02-26T05:47:38.133Z,95072.29
2019-02-26T05:50:13.285Z,95065.75
2019-02-26T05:52:39.195Z,95073.19
2019-02-26T05:55:09.293Z,95053.40
2019-02-26T05:57:38.002Z,95050.25
2019-02-26T06:00:13.395Z,95053.30
2019-02-26T06:02:42.135Z,95055.63
2019-02-26T06:05:11.938Z,95065.91
2019-02-26T06:07:40.799Z,95063.00
2019-02-26T06:10:09.574Z,95053.64
2019-02-26T06:12:40.784Z,95060.05
2019-02-26T06:15:09.174Z,95062.67
2019-02-26T06:17:40.706Z,95062.67
2019-02-26T06:20:23.552Z,95061.27
2019-02-26T06:22:52.073Z,95057.23
2019-02-26T06:25:24.350Z,95061.66
2019-02-26T06:27:51.230Z,95068.61
2019-02-26T06:30:19.872Z,95053.91
2019-02-26T06:32:48.575Z,95039.99
2019-02-26T06:35:19.277Z,95041.30
2019-02-26T06:37:47.827Z,95029.58
2019-02-26T06:40:17.797Z,95024.87
2019-02-26T06:42:46.479Z,95022.41
2019-02-26T06:45:16.566Z,95025.20
2019-02-26T06:47:47.890Z,95024.61
2019-02-26T06:50:18.544Z,95035.29
2019-02-26T06:52:47.825Z,95027.88
2019-02-26T06:55:16.860Z,95013.88
2019-02-26T06:57:47.178Z,95005.28
2019-02-26T07:00:19.532Z,94993.17
2019-02-26T07:02:48.374Z,94997.69
2019-02-26T07:05:17.048Z,95001.75
2019-02-26T07:07:45.738Z,95006.55
2019-02-26T07:10:18.684Z,94991.63
2019-02-26T07:12:50.073Z,95000.77
2019-02-26T07:15:17.023Z,94988.22
2019-02-26T07:17:46.276Z,94938.14
2019-02-26T07:20:15.537Z,94989.94
2019-02-26T07:22:46.821Z,95000.00
2019-02-26T07:25:16.605Z,95005.50
2019-02-26T07:27:45.203Z,95003.35
2019-02-26T07:30:13.870Z,95003.73
2019-02-26T07:32:45.473Z,94989.19
2019-02-26T07:35:15.968Z,94980.17
2019-02-26T07:37:43.572Z,94984.05
2019-02-26T07:40:15.920Z,94980.75
2019-02-26T07:42:44.772Z,94984.86
2019-02-26T07:45:17.863Z,94973.97
2019-02-26T07:47:45.382Z,94956.73
2019-02-26T07:50:15.098Z,94955.92
2019-02-26T07:52:44.799Z,94936.47
2019-02-26T07:55:15.321Z,94946.79
2019-02-26T07:57:45.531Z,94941.02
2019-02-26T08:00:23.046Z,94925.91
2019-02-26T08:02:54.001Z,94928.48
2019-02-26T08:05:25.728Z,94917.74
2019-02-26T08:07:56.417Z,94923.17
2019-02-26T08:10:24.890Z,94923.80
2019-02-26T08:12:53.569Z,94929.31
2019-02-26T08:15:22.262Z,94932.37
2019-02-26T08:17:55.428Z,94936.73
2019-02-26T08:20:21.528Z,94936.73
2019-02-26T08:22:51.585Z,94935.60
2019-02-26T08:25:20.829Z,94935.27
2019-02-26T08:27:51.639Z,94944.03
2019-02-26T08:30:23.345Z,94945.05
2019-02-26T08:32:53.580Z,94950.38
2019-02-26T08:35:21.233Z,94940.09
2019-02-26T08:37:49.932Z,94924.80
2019-02-26T08:40:18.666Z,94918.40
2019-02-26T08:42:47.401Z,94907.34
2019-02-26T08:45:22.431Z,94915.12
2019-02-26T08:47:49.551Z,94918.25
2019-02-26T08:50:18.291Z,94919.98
2019-02-26T08:52:50.052Z,94902.78
2019-02-26T08:55:19.070Z,94909.48
2019-02-26T08:57:51.245Z,94906.31
2019-02-26T09:00:21.901Z,94905.62
2019-02-26T09:02:54.438Z,94897.91
2019-02-26T09:05:23.986Z,94849.64
2019-02-26T09:07:52.853Z,94877.95
2019-02-26T09:10:23.345Z,94870.35
2019-02-26T09:12:52.356Z,94858.79
2019-02-26T09:15:22.227Z,94871.00
2019-02-26T09:17:50.894Z,94855.63
2019-02-26T09:20:20.709Z,94869.92
2019-02-26T09:22:53.010Z,94855.67
2019-02-26T09:25:23.157Z,94867.99
2019-02-26T09:27:50.603Z,94857.21
2019-02-26T09:30:20.780Z,94853.63
2019-02-26T09:32:49.503Z,94794.80
2019-02-26T09:35:24.693Z,94846.67
2019-02-26T09:37:52.617Z,94848.08
2019-02-26T09:40:23.531Z,94850.27
2019-02-26T09:42:54.545Z,94844.00
2019-02-26T09:45:26.885Z,94843.73
2019-02-26T09:47:57.591Z,94843.47
2019-02-26T09:50:25.260Z,94845.50
2019-02-26T09:52:58.145Z,94820.00
2019-02-26T09:55:24.369Z,94828.05
2019-02-26T09:57:53.101Z,94814.28
2019-02-26T10:00:26.107Z,94807.66
2019-02-26T10:02:53.376Z,94820.16
2019-02-26T10:05:22.161Z,94805.03
2019-02-26T10:07:53.880Z,94703.23
2019-02-26T10:10:27.642Z,94797.96
2019-02-26T10:12:57.414Z,94794.91
2019-02-26T10:15:25.519Z,94781.99
2019-02-26T10:17:56.182Z,94785.38
2019-02-26T10:20:29.458Z,94766.41
2019-02-26T10:22:58.640Z,94769.15
2019-02-26T10:25:29.346Z,94764.17
2019-02-26T10:28:03.102Z,94768.44
2019-02-26T10:30:31.400Z,94769.82
2019-02-26T10:33:01.758Z,94760.88
2019-02-26T10:35:33.290Z,94769.91
2019-02-26T10:38:03.648Z,94764.59
2019-02-26T10:40:35.138Z,94749.14
2019-02-26T10:43:01.538Z,94717.17
2019-02-26T10:45:36.209Z,94738.64
2019-02-26T10:48:02.114Z,94743.46
2019-02-26T10:50:32.089Z,94732.40
2019-02-26T10:53:07.343Z,94718.87
2019-02-26T10:55:38.366Z,94721.57
2019-02-26T10:58:06.759Z,94721.56
2019-02-26T11:00:37.097Z,94700.23
2019-02-26T11:03:03.345Z,94692.09
2019-02-26T11:05:32.123Z,94687.66
2019-02-26T11:08:02.945Z,94679.95
2019-02-26T11:10:32.011Z,94667.60
2019-02-26T11:13:01.113Z,94665.87
2019-02-26T11:15:33.318Z,94666.78
2019-02-26T11:18:00.355Z,94644.71
2019-02-26T11:20:31.001Z,94642.75
2019-02-26T11:23:03.423Z,94632.98
2019-02-26T11:25:31.809Z,94620.27
2019-02-26T11:28:02.554Z,94620.80
2019-02-26T11:30:32.253Z,94623.84
2019-02-26T11:33:04.757Z,94617.31
2019-02-26T11:35:31.484Z,94599.05
2019-02-26T11:38:00.170Z,94602.69
2019-02-26T11:40:30.620Z,94581.01
2019-02-26T11:43:01.577Z,94579.29
2019-02-26T11:45:29.799Z,94576.98
2019-02-26T11:48:01.067Z,94573.00
2019-02-26T11:50:28.891Z,94581.38
2019-02-26T11:52:58.101Z,94575.30
2019-02-26T11:55:29.303Z,94573.56
2019-02-26T11:57:57.274Z,94586.70
2019-02-26T12:00:49.680Z,94571.48
2019-02-26T12:03:16.675Z,94579.81
2019-02-26T12:05:45.381Z,94578.41
2019-02-26T12:08:16.694Z,94577.48
2019-02-26T12:10:44.717Z,94570.52
2019-02-26T12:13:14.679Z,94575.66
2019-02-26T12:15:43.925Z,94568.23
2019-02-26T12:18:14.871Z,94570.61
2019-02-26T12:20:45.725Z,94564.67
2019-02-26T12:23:16.152Z,94557.34
2019-02-26T12:25:43.985Z,94538.51
2019-02-26T12:28:13.699Z,94530.50
2019-02-26T12:30:44.725Z,94525.17
2019-02-26T12:33:14.814Z,94520.45
2019-02-26T12:35:43.875Z,94520.72
2019-02-26T12:38:18.783Z,94517.27
2019-02-26T12:40:46.323Z,94513.55
2019-02-26T12:43:16.283Z,94506.98
2019-02-26T12:45:44.156Z,94499.81
2019-02-26T12:48:15.689Z,94509.09
2019-02-26T12:50:43.368Z,94503.13
2019-02-26T12:53:14.977Z,94493.38
2019-02-26T12:55:42.885Z,94482.01
2019-02-26T12:58:14.566Z,94490.27
2019-02-26T13:00:42.410Z,94481.23
2019-02-26T13:03:12.741Z,94478.16
2019-02-26T13:05:43.536Z,94484.96
2019-02-26T13:08:15.968Z,94477.88
2019-02-26T13:10:46.638Z,94474.96
2019-02-26T13:13:12.973Z,94439.34
2019-02-26T13:15:41.655Z,94470.47
2019-02-26T13:18:10.408Z,94450.11
2019-02-26T13:20:39.310Z,94438.31
2019-02-26T13:23:17.094Z,94433.50
2019-02-26T13:25:38.439Z,94422.20
2019-02-26T13:28:07.140Z,94417.34
2019-02-26T13:30:35.844Z,94414.92
2019-02-26T13:33:10.129Z,94385.70
2019-02-26T13:35:35.039Z,94396.94
2019-02-26T13:38:04.799Z,94404.45
2019-02-26T13:40:38.387Z,94391.53
2019-02-26T13:45:34.213Z,94382.66
2019-02-26T13:48:03.027Z,94387.12
2019-02-26T13:50:34.115Z,94377.86
2019-02-26T13:53:02.808Z,94371.33
2019-02-26T13:55:31.488Z,94371.00
2019-02-26T13:58:00.176Z,94373.05
2019-02-26T14:00:29.717Z,94365.94
2019-02-26T14:02:58.479Z,94361.98
2019-02-26T14:05:27.629Z,94360.80
2019-02-26T14:07:56.313Z,94362.28
2019-02-26T14:10:26.160Z,94361.92
2019-02-26T14:12:54.806Z,94360.48
2019-02-26T14:15:26.499Z,94364.97
2019-02-26T14:17:55.207Z,94343.79
2019-02-26T14:20:24.088Z,94358.95
2019-02-26T14:22:52.774Z,94350.66
2019-02-26T14:25:21.581Z,94334.38
2019-02-26T14:27:50.258Z,94321.20
2019-02-26T14:30:20.075Z,94313.39
2019-02-26T14:32:48.789Z,94305.42
2019-02-26T14:35:17.686Z,94305.97
2019-02-26T14:37:46.365Z,94302.45
2019-02-26T14:40:17.234Z,94292.63
2019-02-26T14:42:45.906Z,94279.50
2019-02-26T14:45:23.021Z,94284.32
2019-02-26T14:47:51.802Z,94284.80
2019-02-26T14:50:22.367Z,94289.19
2019-02-26T14:52:51.087Z,94256.22
2019-02-26T14:55:19.798Z,94274.20
2019-02-26T14:57:48.582Z,94275.69
2019-02-26T15:00:22.996Z,94282.47
2019-02-26T15:02:51.840Z,94284.83
2019-02-26T15:05:20.514Z,94274.86
2019-02-26T15:07:51.236Z,94262.19
2019-02-26T15:10:20.622Z,94262.01
2019-02-26T15:12:49.517Z,94259.24
2019-02-26T15:15:19.023Z,94257.27
2019-02-26T15:17:47.775Z,94253.89
2019-02-26T15:20:20.155Z,94253.84
2019-02-26T15:22:49.031Z,94248.09
2019-02-26T15:25:26.014Z,94250.75
2019-02-26T15:28:04.272Z,94239.63
2019-02-26T15:30:25.241Z,94239.30
2019-02-26T15:32:54.027Z,94231.11
2019-02-26T15:35:23.083Z,94242.79
2019-02-26T15:37:51.924Z,94244.97
2019-02-26T15:40:21.298Z,94237.16
2019-02-26T15:42:52.274Z,94238.58
2019-02-26T15:45:28.970Z,94232.22
2019-02-26T15:47:58.384Z,94255.53
2019-02-26T15:50:27.071Z,94251.52
2019-02-26T15:52:55.754Z,94252.75
2019-02-26T15:55:31.956Z,94256.00
2019-02-26T15:58:06.712Z,94260.50
2019-02-26T16:00:37.688Z,94262.11
2019-02-26T16:03:05.383Z,94261.47
2019-02-26T16:05:39.098Z,94267.80
2019-02-26T16:08:07.992Z,94268.83
2019-02-26T16:10:37.132Z,94273.71
2019-02-26T16:13:05.827Z,94268.98
2019-02-26T16:15:35.597Z,94269.63
2019-02-26T16:18:04.319Z,94268.75
2019-02-26T16:20:33.188Z,94268.41
2019-02-26T16:23:01.985Z,94269.72
2019-02-26T16:25:30.655Z,94266.66
2019-02-26T16:27:59.344Z,94255.90
2019-02-26T16:30:30.575Z,94260.91
2019-02-26T16:32:59.342Z,94261.66
2019-02-26T16:35:28.029Z,94254.16
2019-02-26T16:37:56.730Z,94257.56
2019-02-26T16:40:25.412Z,94276.51
2019-02-26T16:42:54.193Z,94287.26
2019-02-26T16:45:27.667Z,94287.70
2019-02-26T16:47:57.372Z,94289.84
2019-02-26T16:50:31.270Z,94280.70
2019-02-26T16:53:00.326Z,94300.97
2019-02-26T16:55:29.749Z,94304.59
2019-02-26T16:58:02.316Z,94310.72
2019-02-26T17:00:30.283Z,94307.87
2019-02-26T17:03:01.350Z,94318.88
2019-02-26T17:05:30.355Z,94319.23
2019-02-26T17:07:59.205Z,94332.90
2019-02-26T17:10:30.326Z,94329.62
2019-02-26T17:13:01.950Z,94322.87
2019-02-26T17:15:30.699Z,94328.31
2019-02-26T17:17:59.420Z,94331.91
2019-02-26T17:20:28.188Z,94338.22
2019-02-26T17:22:56.893Z,94336.41
2019-02-26T17:25:28.526Z,94328.02
2019-02-26T17:27:56.060Z,94339.42
2019-02-26T17:30:24.893Z,94334.80
2019-02-26T17:32:53.683Z,94357.10
2019-02-26T17:35:22.458Z,94361.18
2019-02-26T17:37:51.118Z,94347.85
2019-02-26T17:40:22.536Z,94361.30
2019-02-26T17:42:51.933Z,94344.23
2019-02-26T17:45:26.377Z,94331.78
2019-02-26T17:47:56.763Z,94319.19
2019-02-26T17:50:43.428Z,94333.45
2019-02-26T17:53:11.694Z,94324.59
2019-02-26T17:55:40.360Z,94340.19
2019-02-26T17:58:10.605Z,94344.70
2019-02-26T18:00:44.024Z,94351.90
2019-02-26T18:03:12.701Z,94337.22
2019-02-26T18:05:50.892Z,94336.91
2019-02-26T18:08:11.799Z,94335.56
2019-02-26T18:10:40.476Z,94329.72
2019-02-26T18:13:09.157Z,94331.67
2019-02-26T18:15:37.888Z,94337.22
2019-02-26T18:18:06.577Z,94331.06
2019-02-26T18:20:35.252Z,94340.38
2019-02-26T18:23:03.950Z,94335.94
2019-02-26T18:25:32.658Z,94348.83
2019-02-26T18:28:01.331Z,94346.28
2019-02-26T18:30:30.818Z,94348.67
2019-02-26T18:32:59.594Z,94345.06
2019-02-26T18:35:28.501Z,94352.13
2019-02-26T18:37:57.168Z,94357.83
2019-02-26T18:40:28.381Z,94353.34
2019-02-26T18:42:56.373Z,94358.73
2019-02-26T18:45:29.264Z,94356.80
2019-02-26T18:47:58.062Z,94356.49
2019-02-26T18:50:28.419Z,94353.95
2019-02-26T18:52:58.456Z,94332.09
2019-02-26T18:55:31.491Z,94325.22
2019-02-26T18:57:58.604Z,94313.06
2019-02-26T19:00:34.957Z,94318.91
2019-02-26T19:03:03.640Z,94310.95
2019-02-26T19:05:32.406Z,94290.16
2019-02-26T19:08:01.112Z,94292.09
2019-02-26T19:10:29.794Z,94283.85
2019-02-26T19:13:02.439Z,94290.59
2019-02-26T19:15:33.758Z,94292.97
2019-02-26T19:18:03.307Z,94301.37
2019-02-26T19:20:37.230Z,94326.69
2019-02-26T19:23:06.001Z,94343.16
2019-02-26T19:25:34.825Z,94352.41
2019-02-26T19:28:03.651Z,94361.72
2019-02-26T19:30:36.765Z,94371.45
2019-02-26T19:33:03.537Z,94367.26
2019-02-26T19:35:36.234Z,94384.32
2019-02-26T19:38:04.570Z,94378.27
2019-02-26T19:40:48.129Z,94385.45
2019-02-26T19:43:16.839Z,94382.75
2019-02-26T19:45:45.516Z,94383.17
2019-02-26T19:48:14.206Z,94384.49
2019-02-26T19:50:45.408Z,94375.94
2019-02-26T19:53:13.253Z,94373.08
2019-02-26T19:55:49.797Z,94377.13
2019-02-26T19:58:17.370Z,94371.58
2019-02-26T20:00:46.052Z,94350.20
2019-02-26T20:03:14.714Z,94345.84
2019-02-26T20:05:46.242Z,94341.54
2019-02-26T20:08:13.839Z,94337.10
2019-02-26T20:10:42.518Z,94342.50
2019-02-26T20:13:12.742Z,94333.06
2019-02-26T20:15:41.593Z,94338.64
2019-02-26T20:18:20.087Z,94337.28
2019-02-26T20:20:41.257Z,94344.77
2019-02-26T20:23:09.956Z,94335.48
2019-02-26T20:25:42.493Z,94347.18
2019-02-26T20:28:09.135Z,94345.09
2019-02-26T20:30:37.814Z,94346.44
2019-02-26T20:33:06.504Z,94342.24
2019-02-26T20:35:35.168Z,94343.48
2019-02-26T20:38:03.858Z,94350.50
2019-02-26T20:40:32.543Z,94346.61
2019-02-26T20:43:01.866Z,94346.02
2019-02-26T20:45:31.616Z,94361.44
2019-02-26T20:48:03.890Z,94357.42
2019-02-26T20:50:30.725Z,94356.08
2019-02-26T20:52:59.394Z,94367.29
2019-02-26T20:55:30.170Z,94373.41
2019-02-26T20:57:58.835Z,94375.20
2019-02-26T21:00:27.559Z,94370.86
2019-02-26T21:02:56.282Z,94368.16
2019-02-26T21:05:25.203Z,94374.91
2019-02-26T21:07:57.901Z,94369.81
2019-02-26T21:10:24.619Z,94366.52
2019-02-26T21:12:53.298Z,94369.36
2019-02-26T21:15:25.951Z,94365.33
2019-02-26T21:17:57.685Z,94369.38
2019-02-26T21:20:25.041Z,94372.51
2019-02-26T21:22:54.944Z,94378.61
2019-02-26T21:25:24.291Z,94374.88
2019-02-26T21:27:52.949Z,94365.62
2019-02-26T21:30:23.444Z,94373.86
2019-02-26T21:32:52.106Z,94376.84
2019-02-26T21:35:21.343Z,94377.73
2019-02-26T21:37:50.463Z,94378.45
2019-02-26T21:40:19.131Z,94376.80
2019-02-26T21:42:47.814Z,94372.73
2019-02-26T21:45:17.678Z,94371.56
2019-02-26T21:47:46.355Z,94370.98
2019-02-26T21:50:16.035Z,94364.83
2019-02-26T21:52:59.281Z,94364.67
2019-02-26T21:55:16.100Z,94355.39
2019-02-26T21:57:44.839Z,94348.83
2019-02-26T22:00:21.337Z,94341.79
2019-02-26T22:02:52.461Z,94347.61
2019-02-26T22:05:20.521Z,94349.11
2019-02-26T22:07:52.086Z,94352.41
2019-02-26T22:10:20.898Z,94353.17
2019-02-26T22:12:49.591Z,94364.53
2019-02-26T22:15:18.351Z,94354.38
2019-02-26T22:17:47.024Z,94360.47
2019-02-26T22:20:23.689Z,94367.98
2019-02-26T22:22:48.028Z,94369.91
2019-02-26T22:25:17.451Z,94361.11
2019-02-26T22:27:46.337Z,94364.87
2019-02-26T22:30:21.972Z,94358.30
2019-02-26T22:32:50.449Z,94352.61
2019-02-26T22:35:19.103Z,94356.04
2019-02-26T22:37:50.525Z,94343.92
2019-02-26T22:40:19.199Z,94342.44
2019-02-26T22:42:47.871Z,94330.16
2019-02-26T22:45:16.848Z,94326.41
2019-02-26T22:47:45.546Z,94335.70
2019-02-26T22:50:18.236Z,94342.57
2019-02-26T22:52:46.959Z,94345.98
2019-02-26T22:55:17.660Z,94343.44
2019-02-26T22:57:46.740Z,94341.78
2019-02-26T23:00:31.396Z,94340.44
2019-02-26T23:03:00.668Z,94347.66
2019-02-26T23:05:30.063Z,94343.64
2019-02-26T23:07:58.735Z,94344.98
2019-02-26T23:10:27.814Z,94343.66
2019-02-26T23:12:56.469Z,94348.44
2019-02-26T23:15:25.258Z,94343.20
2019-02-26T23:17:58.180Z,94339.63
2019-02-26T23:20:24.354Z,94333.48
2019-02-26T23:22:53.114Z,94336.32
2019-02-26T23:25:21.897Z,94338.27
2019-02-26T23:27:50.579Z,94335.42
2019-02-26T23:30:19.674Z,94339.92
2019-02-26T23:32:48.459Z,94332.73
2019-02-26T23:35:17.258Z,94337.83
2019-02-26T23:37:46.003Z,94344.10
2019-02-26T23:40:15.473Z,94339.75
2019-02-26T23:42:44.144Z,94339.31
2019-02-26T23:45:13.633Z,94336.48
2019-02-26T23:47:42.805Z,94348.58
2019-02-26T23:50:12.388Z,94356.52
2019-02-26T23:52:41.055Z,94360.39
2019-02-26T23:55:13.362Z,94361.75
2019-02-26T23:57:42.666Z,94363.08
